createdAt,value
2023-04-29T00:01:40.179Z,100016.22
2023-04-29T00:04:07.056Z,100026.97
2023-04-29T00:06:33.967Z,100023.38
2023-04-29T00:09:00.565Z,100015.81
2023-04-29T00:11:27.309Z,100016.63
2023-04-29T00:13:53.907Z,100012.47
2023-04-29T00:16:20.557Z,100016.06
2023-04-29T00:18:47.239Z,100006.88
2023-04-29T00:21:13.877Z,100017.66
2023-04-29T00:23:40.658Z,99999.25
2023-04-29T00:26:07.296Z,100007.22
2023-04-29T00:28:34.111Z,99998.97
2023-04-29T00:31:00.773Z,100001.38
2023-04-29T00:33:27.432Z,99996.78
2023-04-29T00:35:54.060Z,99996.88
2023-04-29T00:38:20.681Z,99996.66
2023-04-29T00:40:47.467Z,99995.38
2023-04-29T00:43:14.242Z,100003.50
2023-04-29T00:45:40.919Z,100001.66
2023-04-29T00:48:08.024Z,99999.50
2023-04-29T00:50:34.943Z,100008.63
2023-04-29T00:53:01.650Z,100005.78
2023-04-29T00:55:29.040Z,100006.22
2023-04-29T00:57:57.315Z,100013.59
2023-04-29T01:00:24.077Z,100003.78
2023-04-29T01:02:51.198Z,99996.78
2023-04-29T01:05:18.093Z,99995.88
2023-04-29T01:08:05.811Z,100000.13
2023-04-29T01:10:41.975Z,99993.09
2023-04-29T01:13:29.688Z,99999.31
2023-04-29T01:16:04.892Z,99996.81
2023-04-29T01:18:42.129Z,99996.50
2023-04-29T01:21:08.773Z,99998.25
2023-04-29T01:23:35.395Z,100002.53
2023-04-29T01:26:02.273Z,99998.66
2023-04-29T01:28:47.317Z,99997.81
2023-04-29T01:31:28.355Z,99997.25
2023-04-29T01:34:19.986Z,99999.00
2023-04-29T01:36:58.625Z,99997.44
2023-04-29T01:40:07.046Z,99995.94
2023-04-29T01:42:42.952Z,100001.38
2023-04-29T01:45:11.881Z,99999.34
2023-04-29T01:47:39.367Z,99994.94
2023-04-29T01:50:06.602Z,99991.19
2023-04-29T01:52:33.296Z,99992.41
2023-04-29T01:54:59.978Z,99990.81
2023-04-29T01:57:26.606Z,99984.50
2023-04-29T01:59:53.431Z,99988.56
2023-04-29T02:02:20.210Z,99978.53
2023-04-29T02:04:47.307Z,99988.03
2023-04-29T02:07:14.077Z,99983.59
2023-04-29T02:09:40.777Z,99994.75
2023-04-29T02:12:07.422Z,99986.47
2023-04-29T02:14:35.044Z,99987.41
2023-04-29T02:17:03.488Z,99992.34
2023-04-29T02:19:30.213Z,99987.31
2023-04-29T02:21:56.892Z,100005.84
2023-04-29T02:24:23.588Z,99992.50
2023-04-29T02:26:50.327Z,99996.50
2023-04-29T02:29:17.030Z,99989.63
2023-04-29T02:31:43.714Z,100004.97
2023-04-29T02:34:10.410Z,99997.47
2023-04-29T02:36:37.012Z,99995.56
2023-04-29T02:39:03.626Z,100000.78
2023-04-29T02:41:30.295Z,99990.94
2023-04-29T02:44:00.063Z,99987.78
2023-04-29T02:46:27.032Z,99983.75
2023-04-29T02:48:55.227Z,99985.25
2023-04-29T02:51:21.914Z,99983.28
2023-04-29T02:53:48.754Z,99978.63
2023-04-29T02:56:15.403Z,99980.66
2023-04-29T02:58:42.044Z,99975.91
2023-04-29T03:01:08.702Z,99984.03
2023-04-29T03:03:35.450Z,99977.53
2023-04-29T03:06:02.205Z,99980.44
2023-04-29T03:08:29.007Z,99980.78
2023-04-29T03:10:55.596Z,99980.97
2023-04-29T03:13:22.377Z,99972.56
2023-04-29T03:15:49.145Z,99969.56
2023-04-29T03:18:15.813Z,99967.72
2023-04-29T03:20:42.644Z,99963.13
2023-04-29T03:23:09.295Z,99968.06
2023-04-29T03:25:35.946Z,99966.25
2023-04-29T03:28:02.663Z,99968.13
2023-04-29T03:30:29.358Z,99961.66
2023-04-29T03:32:56.085Z,99963.66
2023-04-29T03:35:22.747Z,99973.75
2023-04-29T03:37:49.457Z,99972.38
2023-04-29T03:40:16.244Z,99981.19
2023-04-29T03:42:43.026Z,99983.25
2023-04-29T03:45:10.412Z,99980.44
2023-04-29T03:47:37.148Z,99982.06
2023-04-29T03:50:04.187Z,99981.41
2023-04-29T03:52:30.963Z,99979.63
2023-04-29T03:54:57.660Z,99984.22
2023-04-29T03:57:24.245Z,99984.94
2023-04-29T03:59:51.260Z,99991.66
2023-04-29T04:02:18.372Z,99998.53
2023-04-29T04:04:45.671Z,99994.66
2023-04-29T04:07:12.762Z,99996.59
2023-04-29T04:09:39.385Z,99989.91
2023-04-29T04:12:06.743Z,100004.63
2023-04-29T04:14:33.475Z,100004.34
2023-04-29T04:17:00.504Z,99999.44
2023-04-29T04:19:27.182Z,100002.25
2023-04-29T04:21:53.780Z,100006.50
2023-04-29T04:24:20.643Z,100009.50
2023-04-29T04:26:47.278Z,100010.47
2023-04-29T04:29:14.053Z,100009.75
2023-04-29T04:31:40.679Z,100018.28
2023-04-29T04:34:07.408Z,100019.16
2023-04-29T04:36:34.129Z,100016.06
2023-04-29T04:39:00.822Z,100015.06
2023-04-29T04:41:27.422Z,100018.31
2023-04-29T04:43:54.033Z,100022.94
2023-04-29T04:46:22.615Z,100015.41
2023-04-29T04:48:49.413Z,100014.91
2023-04-29T04:51:16.055Z,100013.22
2023-04-29T04:53:42.723Z,100009.25
2023-04-29T04:56:09.378Z,100006.34
2023-04-29T04:58:36.013Z,100007.00
2023-04-29T05:01:02.699Z,100001.94
2023-04-29T05:03:29.496Z,100010.16
2023-04-29T05:05:57.697Z,100011.03
2023-04-29T05:08:25.600Z,100007.31
2023-04-29T05:10:54.157Z,100004.31
2023-04-29T05:13:21.337Z,99996.31
2023-04-29T05:15:47.970Z,99989.19
2023-04-29T05:18:14.619Z,99988.97
2023-04-29T05:20:41.369Z,99991.41
2023-04-29T05:23:08.046Z,99989.94
2023-04-29T05:25:34.945Z,99991.28
2023-04-29T05:28:03.282Z,99996.69
2023-04-29T05:30:30.087Z,99997.06
2023-04-29T05:32:56.893Z,99998.31
2023-04-29T05:35:23.609Z,100008.63
2023-04-29T05:37:50.394Z,100000.97
2023-04-29T05:40:17.164Z,100004.59
2023-04-29T05:42:43.766Z,100001.47
2023-04-29T05:45:10.768Z,100011.03
2023-04-29T05:47:37.746Z,100000.25
2023-04-29T05:50:04.923Z,100011.53
2023-04-29T05:52:31.569Z,100015.25
2023-04-29T05:54:58.212Z,100009.81
2023-04-29T05:57:24.852Z,100021.53
2023-04-29T05:59:53.858Z,100020.25
2023-04-29T06:02:21.286Z,100022.53
2023-04-29T06:04:48.205Z,100020.91
2023-04-29T06:07:15.404Z,100018.72
2023-04-29T06:09:42.155Z,100026.66
2023-04-29T06:12:08.756Z,100020.00
2023-04-29T06:14:37.694Z,100022.47
2023-04-29T06:17:04.436Z,100016.06
2023-04-29T06:19:31.177Z,100020.03
2023-04-29T06:21:57.778Z,100020.53
2023-04-29T06:24:24.546Z,100023.59
2023-04-29T06:26:51.460Z,100022.31
2023-04-29T06:29:18.143Z,100025.75
2023-04-29T06:31:44.769Z,100029.09
2023-04-29T06:34:11.518Z,100027.88
2023-04-29T06:36:38.154Z,100038.69
2023-04-29T06:39:05.153Z,100037.28
2023-04-29T06:41:32.880Z,100034.03
2023-04-29T06:43:59.479Z,100042.09
2023-04-29T06:46:26.176Z,100034.19
2023-04-29T06:48:52.963Z,100029.25
2023-04-29T06:51:19.638Z,100021.91
2023-04-29T06:53:46.268Z,100019.81
2023-04-29T06:56:12.971Z,100026.50
2023-04-29T06:58:39.635Z,100022.94
2023-04-29T07:01:06.380Z,100027.38
2023-04-29T07:03:33.109Z,100025.63
2023-04-29T07:05:59.785Z,100033.69
2023-04-29T07:08:26.427Z,100039.63
2023-04-29T07:10:57.115Z,100039.00
2023-04-29T07:13:24.870Z,100038.09
2023-04-29T07:15:51.852Z,100038.66
2023-04-29T07:18:18.528Z,100039.41
2023-04-29T07:20:45.257Z,100031.34
2023-04-29T07:23:11.939Z,100029.84
2023-04-29T07:25:38.603Z,100029.91
2023-04-29T07:28:05.382Z,100028.22
2023-04-29T07:30:32.195Z,100030.50
2023-04-29T07:32:58.816Z,100036.00
2023-04-29T07:35:25.639Z,100034.03
2023-04-29T07:37:52.395Z,100035.03
2023-04-29T07:40:19.089Z,100041.75
2023-04-29T07:42:45.772Z,100033.97
2023-04-29T07:45:12.510Z,100035.97
2023-04-29T07:47:39.623Z,100038.56
2023-04-29T07:50:06.680Z,100041.75
2023-04-29T07:52:34.718Z,100040.81
2023-04-29T07:55:01.665Z,100035.13
2023-04-29T07:57:28.303Z,100033.28
2023-04-29T07:59:55.030Z,100037.69
2023-04-29T08:02:21.992Z,100035.69
2023-04-29T08:04:49.309Z,100039.22
2023-04-29T08:07:16.199Z,100040.53
2023-04-29T08:09:42.845Z,100049.00
2023-04-29T08:12:09.613Z,100048.06
2023-04-29T08:14:36.268Z,100051.88
2023-04-29T08:17:02.914Z,100055.59
2023-04-29T08:19:29.728Z,100057.91
2023-04-29T08:21:56.477Z,100058.09
2023-04-29T08:24:23.181Z,100054.44
2023-04-29T08:26:49.843Z,100052.63
2023-04-29T08:29:16.486Z,100047.84
2023-04-29T08:31:43.232Z,100044.72
2023-04-29T08:34:09.941Z,100046.28
2023-04-29T08:36:36.583Z,100052.63
2023-04-29T08:39:03.527Z,100045.84
2023-04-29T08:41:32.418Z,100053.41
2023-04-29T08:44:02.135Z,100053.41
2023-04-29T08:46:29.570Z,100054.00
2023-04-29T08:48:56.919Z,100051.66
2023-04-29T08:51:23.597Z,100049.44
2023-04-29T08:53:50.515Z,100057.69
2023-04-29T08:56:18.311Z,100046.72
2023-04-29T08:58:45.340Z,100046.13
2023-04-29T09:01:13.594Z,100044.53
2023-04-29T09:03:50.417Z,100050.66
2023-04-29T09:06:18.137Z,100052.34
2023-04-29T09:08:45.156Z,100053.28
2023-04-29T09:11:12.883Z,100055.78
2023-04-29T09:13:39.773Z,100053.78
2023-04-29T09:16:11.683Z,100062.50
2023-04-29T09:18:43.325Z,100061.16
2023-04-29T09:21:29.144Z,100067.09
2023-04-29T09:24:00.900Z,100063.06
2023-04-29T09:26:28.291Z,100065.06
2023-04-29T09:29:12.379Z,100062.97
2023-04-29T09:31:39.409Z,100064.31
2023-04-29T09:34:06.432Z,100066.03
2023-04-29T09:36:36.678Z,100061.88
2023-04-29T09:39:07.777Z,100060.28
2023-04-29T09:41:34.473Z,100061.72
2023-04-29T09:44:08.854Z,100062.59
2023-04-29T09:46:36.904Z,100062.56
2023-04-29T09:49:04.184Z,100055.78
2023-04-29T09:51:31.244Z,100056.28
2023-04-29T09:53:59.847Z,100054.72
2023-04-29T09:56:29.102Z,100053.53
2023-04-29T09:58:57.503Z,100048.38
2023-04-29T10:01:27.835Z,100044.31
2023-04-29T10:03:55.405Z,100054.22
2023-04-29T10:06:23.178Z,100047.22
2023-04-29T10:08:50.638Z,100047.94
2023-04-29T10:11:17.729Z,100047.94
2023-04-29T10:13:44.982Z,100045.13
2023-04-29T10:16:16.126Z,100036.50
2023-04-29T10:18:49.899Z,100042.66
2023-04-29T10:21:18.793Z,100036.22
2023-04-29T10:23:45.863Z,100042.19
2023-04-29T10:26:14.637Z,100029.22
2023-04-29T10:28:43.891Z,100032.81
2023-04-29T10:31:11.146Z,100031.75
2023-04-29T10:33:40.800Z,100029.16
2023-04-29T10:36:08.017Z,100024.44
2023-04-29T10:38:42.809Z,100027.94
2023-04-29T10:41:17.215Z,100025.97
2023-04-29T10:43:44.010Z,100016.84
2023-04-29T10:46:16.610Z,100024.56
2023-04-29T10:48:48.355Z,100011.84
2023-04-29T10:51:44.439Z,100009.97
2023-04-29T10:54:17.333Z,100001.72
2023-04-29T10:56:48.369Z,99993.00
2023-04-29T10:59:36.837Z,99996.97
2023-04-29T11:02:03.681Z,99996.50
2023-04-29T11:04:31.450Z,99987.16
2023-04-29T11:06:58.461Z,99978.75
2023-04-29T11:09:27.918Z,99985.38
2023-04-29T11:12:02.388Z,99984.84
2023-04-29T11:14:42.028Z,99984.94
2023-04-29T11:17:08.669Z,99977.72
2023-04-29T11:19:37.490Z,99962.72
2023-04-29T11:22:09.573Z,99971.22
2023-04-29T11:24:36.351Z,99957.75
2023-04-29T11:27:03.441Z,99949.00
2023-04-29T11:29:31.664Z,99956.94
2023-04-29T11:32:00.063Z,99945.94
2023-04-29T11:34:26.861Z,99955.41
2023-04-29T11:36:53.968Z,99951.34
2023-04-29T11:39:20.676Z,99950.72
2023-04-29T11:41:52.434Z,99954.75
2023-04-29T11:44:22.491Z,99953.03
2023-04-29T11:46:49.306Z,99943.72
2023-04-29T11:49:15.975Z,99943.56
2023-04-29T11:51:42.676Z,99946.78
2023-04-29T11:54:09.366Z,99949.53
2023-04-29T11:56:38.156Z,99944.56
2023-04-29T11:59:05.195Z,99945.25
2023-04-29T12:01:31.937Z,99948.66
2023-04-29T12:03:58.959Z,99960.75
2023-04-29T12:06:29.716Z,99956.50
2023-04-29T12:08:59.305Z,99956.31
2023-04-29T12:11:26.196Z,99954.53
2023-04-29T12:13:53.132Z,99941.22
2023-04-29T12:16:19.855Z,99942.63
2023-04-29T12:18:46.811Z,99938.31
2023-04-29T12:21:13.672Z,99938.94
2023-04-29T12:23:41.434Z,99945.97
2023-04-29T12:26:08.810Z,99934.34
2023-04-29T12:28:35.489Z,99937.97
2023-04-29T12:31:02.187Z,99929.59
2023-04-29T12:33:29.982Z,99930.22
2023-04-29T12:35:58.392Z,99935.34
2023-04-29T12:38:34.931Z,99927.56
2023-04-29T12:41:01.852Z,99929.09
2023-04-29T12:43:29.727Z,99929.31
2023-04-29T12:46:10.453Z,99921.16
2023-04-29T12:48:38.248Z,99908.66
2023-04-29T12:51:05.833Z,99908.88
2023-04-29T12:53:32.558Z,99909.22
2023-04-29T12:55:59.346Z,99901.31
2023-04-29T12:58:29.716Z,99901.53
2023-04-29T13:00:56.864Z,99896.03
2023-04-29T13:03:23.974Z,99889.91
2023-04-29T13:05:50.931Z,99885.19
2023-04-29T13:08:17.555Z,99891.59
2023-04-29T13:10:44.452Z,99888.25
2023-04-29T13:13:11.129Z,99880.88
2023-04-29T13:15:37.901Z,99879.75
2023-04-29T13:18:04.998Z,99880.19
2023-04-29T13:20:31.861Z,99883.66
2023-04-29T13:22:58.583Z,99884.06
2023-04-29T13:25:25.294Z,99880.97
2023-04-29T13:27:52.060Z,99879.53
2023-04-29T13:30:18.798Z,99875.72
2023-04-29T13:32:51.630Z,99874.09
2023-04-29T13:35:20.298Z,99858.19
2023-04-29T13:37:46.939Z,99856.94
2023-04-29T13:40:20.217Z,99852.09
2023-04-29T13:42:50.469Z,99858.28
2023-04-29T13:45:19.919Z,99851.03
2023-04-29T13:48:05.761Z,99853.28
2023-04-29T13:53:35.886Z,99853.78
2023-04-29T13:56:47.595Z,99854.38
2023-04-29T14:01:26.113Z,99846.34
2023-04-29T14:03:52.831Z,99837.38
2023-04-29T14:06:19.593Z,99849.75
2023-04-29T14:08:46.237Z,99848.09
2023-04-29T14:11:12.851Z,99846.91
2023-04-29T14:13:39.505Z,99857.66
2023-04-29T14:16:06.526Z,99846.97
2023-04-29T14:18:33.322Z,99846.25
2023-04-29T14:20:59.945Z,99852.75
2023-04-29T14:23:26.552Z,99857.13
2023-04-29T14:25:54.658Z,99855.34
2023-04-29T14:28:21.616Z,99845.47
2023-04-29T14:30:48.247Z,99850.31
2023-04-29T14:33:14.913Z,99848.63
2023-04-29T14:35:41.512Z,99843.63
2023-04-29T14:38:08.212Z,99844.00
2023-04-29T14:40:34.858Z,99839.63
2023-04-29T14:43:01.475Z,99841.31
2023-04-29T14:45:28.247Z,99838.16
2023-04-29T14:47:55.017Z,99838.25
2023-04-29T14:50:21.847Z,99839.09
2023-04-29T14:52:48.448Z,99832.91
2023-04-29T14:55:15.131Z,99825.84
2023-04-29T14:57:41.746Z,99835.94
2023-04-29T15:00:09.143Z,99830.59
2023-04-29T15:02:35.908Z,99840.22
2023-04-29T15:05:02.602Z,99833.59
2023-04-29T15:07:31.584Z,99839.06
2023-04-29T15:09:58.454Z,99845.28
2023-04-29T15:12:25.050Z,99844.59
2023-04-29T15:14:52.297Z,99839.41
2023-04-29T15:17:19.251Z,99839.53
2023-04-29T15:19:45.894Z,99844.69
2023-04-29T15:22:12.589Z,99840.56
2023-04-29T15:24:39.218Z,99837.78
2023-04-29T15:27:05.981Z,99830.34
2023-04-29T15:29:32.632Z,99836.41
2023-04-29T15:31:59.304Z,99838.69
2023-04-29T15:34:26.015Z,99830.47
2023-04-29T15:36:52.821Z,99837.06
2023-04-29T15:39:19.400Z,99843.69
2023-04-29T15:41:46.038Z,99834.16
2023-04-29T15:44:12.709Z,99833.31
2023-04-29T15:46:39.400Z,99839.47
2023-04-29T15:49:06.142Z,99820.28
2023-04-29T15:51:32.990Z,99828.50
2023-04-29T15:53:59.665Z,99833.44
2023-04-29T15:56:26.241Z,99827.44
2023-04-29T15:58:52.869Z,99818.34
2023-04-29T16:01:19.900Z,99811.97
2023-04-29T16:03:46.681Z,99817.38
2023-04-29T16:06:13.421Z,99817.00
2023-04-29T16:08:40.116Z,99810.41
2023-04-29T16:11:06.944Z,99812.38
2023-04-29T16:13:36.200Z,99815.47
2023-04-29T16:16:03.219Z,99812.63
2023-04-29T16:18:29.850Z,99816.28
2023-04-29T16:20:56.718Z,99812.91
2023-04-29T16:23:23.413Z,99817.13
2023-04-29T16:25:50.217Z,99821.09
2023-04-29T16:28:16.881Z,99823.38
2023-04-29T16:30:43.641Z,99826.34
2023-04-29T16:33:10.234Z,99826.63
2023-04-29T16:35:36.964Z,99817.28
2023-04-29T16:38:03.829Z,99820.81
2023-04-29T16:40:30.425Z,99817.41
2023-04-29T16:42:57.027Z,99827.56
2023-04-29T16:45:24.560Z,99820.50
2023-04-29T16:47:51.426Z,99817.94
2023-04-29T16:50:18.247Z,99818.81
2023-04-29T16:52:44.985Z,99822.81
2023-04-29T16:55:14.782Z,99817.41
2023-04-29T16:57:41.464Z,99821.09
2023-04-29T17:00:08.685Z,99814.28
2023-04-29T17:02:35.582Z,99814.97
2023-04-29T17:05:02.312Z,99808.56
2023-04-29T17:07:29.190Z,99818.53
2023-04-29T17:09:56.222Z,99814.91
2023-04-29T17:12:23.133Z,99823.91
2023-04-29T17:14:49.783Z,99827.59
2023-04-29T17:17:16.421Z,99828.97
2023-04-29T17:19:43.090Z,99833.69
2023-04-29T17:22:09.734Z,99835.16
2023-04-29T17:24:37.331Z,99833.94
2023-04-29T17:27:03.976Z,99840.94
2023-04-29T17:29:30.553Z,99846.06
2023-04-29T17:31:57.254Z,99839.09
2023-04-29T17:34:24.084Z,99851.28
2023-04-29T17:36:52.680Z,99848.94
2023-04-29T17:39:19.879Z,99850.34
2023-04-29T17:41:46.529Z,99850.56
2023-04-29T17:44:13.239Z,99853.66
2023-04-29T17:46:40.402Z,99851.19
2023-04-29T17:49:07.000Z,99846.09
2023-04-29T17:51:33.625Z,99854.09
2023-04-29T17:54:03.713Z,99854.28
2023-04-29T17:56:30.402Z,99854.84
2023-04-29T17:58:56.993Z,99855.09
2023-04-29T18:01:24.102Z,99857.41
2023-04-29T18:03:51.023Z,99858.75
2023-04-29T18:06:18.052Z,99860.31
2023-04-29T18:08:45.767Z,99862.78
2023-04-29T18:11:12.426Z,99865.78
2023-04-29T18:13:39.700Z,99868.22
2023-04-29T18:16:07.423Z,99870.59
2023-04-29T18:18:34.293Z,99870.88
2023-04-29T18:21:00.941Z,99862.03
2023-04-29T18:23:28.053Z,99872.81
2023-04-29T18:25:54.747Z,99871.63
2023-04-29T18:28:25.251Z,99876.41
2023-04-29T18:30:52.649Z,99884.72
2023-04-29T18:33:19.392Z,99888.63
2023-04-29T18:35:46.143Z,99887.88
2023-04-29T18:38:12.970Z,99895.84
2023-04-29T18:40:40.528Z,99894.44
2023-04-29T18:43:07.291Z,99887.41
2023-04-29T18:45:34.015Z,99895.84
2023-04-29T18:48:00.842Z,99899.81
2023-04-29T18:50:27.506Z,99901.00
2023-04-29T18:52:54.276Z,99903.19
2023-04-29T18:55:21.044Z,99900.84
2023-04-29T18:57:47.669Z,99907.75
2023-04-29T19:00:14.560Z,99903.63
2023-04-29T19:02:41.231Z,99906.84
2023-04-29T19:05:08.507Z,99907.06
2023-04-29T19:07:35.163Z,99910.00
2023-04-29T19:10:01.966Z,99906.28
2023-04-29T19:12:28.692Z,99907.91
2023-04-29T19:14:55.335Z,99913.75
2023-04-29T19:17:22.095Z,99913.19
2023-04-29T19:19:48.797Z,99914.78
2023-04-29T19:22:15.767Z,99922.22
2023-04-29T19:24:42.429Z,99923.97
2023-04-29T19:27:10.029Z,99923.03
2023-04-29T19:29:36.707Z,99930.34
2023-04-29T19:32:03.692Z,99929.53
2023-04-29T19:34:30.428Z,99934.81
2023-04-29T19:36:57.033Z,99928.78
2023-04-29T19:39:23.656Z,99932.38
2023-04-29T19:41:50.243Z,99934.22
2023-04-29T19:44:16.874Z,99929.34
2023-04-29T19:46:43.631Z,99936.16
2023-04-29T19:49:10.343Z,99928.97
2023-04-29T19:51:36.945Z,99930.63
2023-04-29T19:54:03.681Z,99930.25
2023-04-29T19:56:30.283Z,99930.44
2023-04-29T19:58:56.917Z,99937.72
2023-04-29T20:01:23.635Z,99936.63
2023-04-29T20:03:50.385Z,99937.66
2023-04-29T20:06:17.276Z,99949.59
2023-04-29T20:08:44.255Z,99944.56
2023-04-29T20:11:11.114Z,99943.69
2023-04-29T20:13:37.813Z,99948.38
2023-04-29T20:16:04.675Z,99944.38
2023-04-29T20:18:31.304Z,99947.47
2023-04-29T20:20:58.121Z,99947.47
2023-04-29T20:23:24.763Z,99947.78
2023-04-29T20:25:51.463Z,99943.31
2023-04-29T20:28:18.085Z,99946.78
2023-04-29T20:30:44.735Z,99947.47
2023-04-29T20:33:11.434Z,99934.81
2023-04-29T20:35:38.134Z,99944.69
2023-04-29T20:38:04.924Z,99939.59
2023-04-29T20:40:31.547Z,99934.44
2023-04-29T20:42:58.179Z,99936.19
2023-04-29T20:45:24.927Z,99929.94
2023-04-29T20:47:51.578Z,99940.84
2023-04-29T20:50:18.297Z,99947.53
2023-04-29T20:52:45.205Z,99947.81
2023-04-29T20:55:11.973Z,99939.53
2023-04-29T20:57:38.740Z,99953.28
2023-04-29T21:00:06.121Z,99949.81
2023-04-29T21:02:32.800Z,99952.25
2023-04-29T21:04:59.634Z,99952.25
2023-04-29T21:07:26.469Z,99963.56
2023-04-29T21:09:53.245Z,99962.28
2023-04-29T21:12:20.127Z,99960.09
2023-04-29T21:14:46.788Z,99965.16
2023-04-29T21:17:13.644Z,99961.56
2023-04-29T21:19:40.478Z,99959.19
2023-04-29T21:22:07.152Z,99968.69
2023-04-29T21:24:33.861Z,99961.63
2023-04-29T21:27:00.524Z,99958.38
2023-04-29T21:29:27.144Z,99962.22
2023-04-29T21:31:53.862Z,99959.69
2023-04-29T21:34:20.569Z,99960.09
2023-04-29T21:36:47.331Z,99955.97
2023-04-29T21:39:14.079Z,99954.03
2023-04-29T21:41:41.618Z,99958.00
2023-04-29T21:44:08.375Z,99965.38
2023-04-29T21:46:35.832Z,99966.38
2023-04-29T21:49:03.308Z,99967.06
2023-04-29T21:51:30.004Z,99968.34
2023-04-29T21:53:56.616Z,99967.78
2023-04-29T21:56:23.314Z,99965.28
2023-04-29T21:58:50.166Z,99970.97
2023-04-29T22:01:17.164Z,99966.41
2023-04-29T22:03:43.860Z,99968.31
2023-04-29T22:06:10.552Z,99972.78
2023-04-29T22:08:37.236Z,99970.81
2023-04-29T22:11:05.940Z,99970.44
2023-04-29T22:13:32.657Z,99965.34
2023-04-29T22:15:59.346Z,99958.78
2023-04-29T22:18:26.002Z,99962.44
2023-04-29T22:20:55.766Z,99963.94
2023-04-29T22:23:22.368Z,99957.28
2023-04-29T22:25:49.044Z,99961.97
2023-04-29T22:28:15.825Z,99964.31
2023-04-29T22:30:42.631Z,99962.25
2023-04-29T22:33:10.013Z,99955.91
2023-04-29T22:35:36.715Z,99956.31
2023-04-29T22:38:03.368Z,99957.91
2023-04-29T22:40:30.098Z,99962.69
2023-04-29T22:42:56.838Z,99964.66
2023-04-29T22:45:23.474Z,99973.25
2023-04-29T22:47:50.183Z,99968.69
2023-04-29T22:50:16.861Z,99969.41
2023-04-29T22:52:43.482Z,99971.13
2023-04-29T22:55:10.214Z,99965.88
2023-04-29T22:57:36.912Z,99973.94
2023-04-29T23:00:03.879Z,99968.81
2023-04-29T23:02:30.483Z,99966.72
2023-04-29T23:05:00.869Z,99966.88
2023-04-29T23:07:27.583Z,99971.16
2023-04-29T23:09:54.414Z,99969.44
2023-04-29T23:12:21.499Z,99965.84
2023-04-29T23:14:48.125Z,99964.63
2023-04-29T23:17:14.783Z,99966.88
2023-04-29T23:19:41.503Z,99968.97
2023-04-29T23:22:08.519Z,99970.94
2023-04-29T23:24:35.227Z,99961.72
2023-04-29T23:27:02.386Z,99971.16
2023-04-29T23:29:32.460Z,99968.13
2023-04-29T23:31:59.181Z,99967.63
2023-04-29T23:34:25.863Z,99966.59
2023-04-29T23:36:52.577Z,99961.19
2023-04-29T23:39:19.161Z,99951.50
2023-04-29T23:41:45.825Z,99949.69
2023-04-29T23:44:12.523Z,99954.25
2023-04-29T23:46:39.453Z,99960.16
2023-04-29T23:49:06.157Z,99949.59
2023-04-29T23:51:32.902Z,99958.28
2023-04-29T23:53:59.539Z,99961.31
2023-04-29T23:56:26.350Z,99954.38
2023-04-29T23:58:52.931Z,99950.97
